sensor_id;sensor_type;location;lat;lon;timestamp;P1;durP1;ratioP1;P2;durP2;ratioP2
46086;SDS011;31824;49.648;8.640;2022-09-25T00:01:48;6.60;;;3.42;;
46086;SDS011;31824;49.648;8.640;2022-09-25T00:04:50;7.32;;;3.58;;
46086;SDS011;31824;49.648;8.640;2022-09-25T00:07:54;9.48;;;4.07;;
46086;SDS011;31824;49.648;8.640;2022-09-25T00:10:56;8.05;;;3.83;;
46086;SDS011;31824;49.648;8.640;2022-09-25T00:13:58;6.30;;;3.35;;
46086;SDS011;31824;49.648;8.640;2022-09-25T00:17:01;7.57;;;3.92;;
46086;SDS011;31824;49.648;8.640;2022-09-25T00:20:03;6.63;;;3.88;;
46086;SDS011;31824;49.648;8.640;2022-09-25T00:23:07;6.22;;;3.50;;
46086;SDS011;31824;49.648;8.640;2022-09-25T00:26:09;7.68;;;3.92;;
46086;SDS011;31824;49.648;8.640;2022-09-25T00:29:13;7.55;;;3.80;;
46086;SDS011;31824;49.648;8.640;2022-09-25T00:32:17;7.22;;;3.47;;
46086;SDS011;31824;49.648;8.640;2022-09-25T00:35:19;6.63;;;3.70;;
46086;SDS011;31824;49.648;8.640;2022-09-25T00:38:22;5.88;;;3.55;;
46086;SDS011;31824;49.648;8.640;2022-09-25T00:41:24;5.70;;;3.30;;
46086;SDS011;31824;49.648;8.640;2022-09-25T00:44:43;6.57;;;3.35;;
46086;SDS011;31824;49.648;8.640;2022-09-25T00:47:56;8.27;;;3.92;;
46086;SDS011;31824;49.648;8.640;2022-09-25T00:54:04;7.25;;;3.80;;
46086;SDS011;31824;49.648;8.640;2022-09-25T00:57:09;12.32;;;4.50;;
46086;SDS011;31824;49.648;8.640;2022-09-25T01:00:19;6.75;;;3.10;;
46086;SDS011;31824;49.648;8.640;2022-09-25T01:03:21;6.63;;;3.40;;
46086;SDS011;31824;49.648;8.640;2022-09-25T01:06:23;6.07;;;3.47;;
46086;SDS011;31824;49.648;8.640;2022-09-25T01:09:28;6.68;;;3.50;;
46086;SDS011;31824;49.648;8.640;2022-09-25T01:12:31;7.13;;;3.15;;
46086;SDS011;31824;49.648;8.640;2022-09-25T01:15:35;6.60;;;3.53;;
46086;SDS011;31824;49.648;8.640;2022-09-25T01:18:46;5.72;;;3.25;;
46086;SDS011;31824;49.648;8.640;2022-09-25T01:21:59;6.80;;;3.58;;
46086;SDS011;31824;49.648;8.640;2022-09-25T01:25:14;6.88;;;3.47;;
46086;SDS011;31824;49.648;8.640;2022-09-25T01:28:38;6.60;;;3.67;;
46086;SDS011;31824;49.648;8.640;2022-09-25T01:35:03;7.63;;;3.95;;
46086;SDS011;31824;49.648;8.640;2022-09-25T01:38:15;6.53;;;3.58;;
46086;SDS011;31824;49.648;8.640;2022-09-25T01:41:25;6.13;;;3.53;;
46086;SDS011;31824;49.648;8.640;2022-09-25T01:44:32;6.38;;;3.33;;
46086;SDS011;31824;49.648;8.640;2022-09-25T01:47:37;9.35;;;3.90;;
46086;SDS011;31824;49.648;8.640;2022-09-25T01:50:40;6.40;;;3.28;;
46086;SDS011;31824;49.648;8.640;2022-09-25T01:53:45;5.97;;;3.00;;
46086;SDS011;31824;49.648;8.640;2022-09-25T01:56:53;7.10;;;3.47;;
46086;SDS011;31824;49.648;8.640;2022-09-25T01:59:59;5.18;;;3.22;;
46086;SDS011;31824;49.648;8.640;2022-09-25T02:03:13;6.30;;;3.42;;
46086;SDS011;31824;49.648;8.640;2022-09-25T02:06:21;5.50;;;3.10;;
46086;SDS011;31824;49.648;8.640;2022-09-25T02:09:26;8.55;;;3.70;;
46086;SDS011;31824;49.648;8.640;2022-09-25T02:12:33;6.53;;;3.45;;
46086;SDS011;31824;49.648;8.640;2022-09-25T02:15:43;7.95;;;3.97;;
46086;SDS011;31824;49.648;8.640;2022-09-25T02:18:49;7.70;;;3.90;;
46086;SDS011;31824;49.648;8.640;2022-09-25T02:22:10;6.43;;;3.85;;
46086;SDS011;31824;49.648;8.640;2022-09-25T02:25:18;7.72;;;3.78;;
46086;SDS011;31824;49.648;8.640;2022-09-25T02:28:27;8.02;;;3.90;;
46086;SDS011;31824;49.648;8.640;2022-09-25T02:31:31;9.02;;;4.28;;
46086;SDS011;31824;49.648;8.640;2022-09-25T02:34:36;7.82;;;3.67;;
46086;SDS011;31824;49.648;8.640;2022-09-25T02:37:38;6.85;;;3.80;;
46086;SDS011;31824;49.648;8.640;2022-09-25T02:40:42;9.82;;;3.70;;
46086;SDS011;31824;49.648;8.640;2022-09-25T02:43:52;8.02;;;4.03;;
46086;SDS011;31824;49.648;8.640;2022-09-25T02:47:08;7.72;;;4.07;;
46086;SDS011;31824;49.648;8.640;2022-09-25T02:50:20;7.88;;;4.75;;
46086;SDS011;31824;49.648;8.640;2022-09-25T02:53:27;9.73;;;4.00;;
46086;SDS011;31824;49.648;8.640;2022-09-25T02:56:36;7.18;;;3.80;;
46086;SDS011;31824;49.648;8.640;2022-09-25T02:59:43;8.25;;;4.10;;
46086;SDS011;31824;49.648;8.640;2022-09-25T03:02:52;7.80;;;4.40;;
46086;SDS011;31824;49.648;8.640;2022-09-25T03:05:57;8.63;;;4.65;;
46086;SDS011;31824;49.648;8.640;2022-09-25T03:09:00;7.40;;;3.92;;
46086;SDS011;31824;49.648;8.640;2022-09-25T03:12:03;8.40;;;4.32;;
46086;SDS011;31824;49.648;8.640;2022-09-25T03:15:05;9.07;;;4.60;;
46086;SDS011;31824;49.648;8.640;2022-09-25T03:18:09;9.65;;;4.70;;
46086;SDS011;31824;49.648;8.640;2022-09-25T03:21:12;6.82;;;4.00;;
46086;SDS011;31824;49.648;8.640;2022-09-25T03:24:14;6.60;;;3.75;;
46086;SDS011;31824;49.648;8.640;2022-09-25T03:27:16;8.18;;;4.45;;
46086;SDS011;31824;49.648;8.640;2022-09-25T03:30:18;8.65;;;4.32;;
46086;SDS011;31824;49.648;8.640;2022-09-25T03:33:21;9.82;;;5.03;;
46086;SDS011;31824;49.648;8.640;2022-09-25T03:36:23;8.77;;;4.63;;
46086;SDS011;31824;49.648;8.640;2022-09-25T03:39:26;8.95;;;4.78;;
46086;SDS011;31824;49.648;8.640;2022-09-25T03:42:27;9.07;;;4.72;;
46086;SDS011;31824;49.648;8.640;2022-09-25T03:45:30;13.48;;;5.22;;
46086;SDS011;31824;49.648;8.640;2022-09-25T03:48:33;12.80;;;5.28;;
46086;SDS011;31824;49.648;8.640;2022-09-25T03:51:35;8.98;;;4.15;;
46086;SDS011;31824;49.648;8.640;2022-09-25T03:54:37;10.35;;;4.95;;
46086;SDS011;31824;49.648;8.640;2022-09-25T03:57:38;9.82;;;5.13;;
46086;SDS011;31824;49.648;8.640;2022-09-25T04:00:41;10.50;;;4.75;;
46086;SDS011;31824;49.648;8.640;2022-09-25T04:03:45;10.32;;;5.05;;
46086;SDS011;31824;49.648;8.640;2022-09-25T04:06:48;9.85;;;4.80;;
46086;SDS011;31824;49.648;8.640;2022-09-25T04:09:49;7.95;;;4.38;;
46086;SDS011;31824;49.648;8.640;2022-09-25T04:12:51;8.63;;;4.78;;
46086;SDS011;31824;49.648;8.640;2022-09-25T04:15:54;10.25;;;4.95;;
46086;SDS011;31824;49.648;8.640;2022-09-25T04:18:59;12.95;;;6.10;;
46086;SDS011;31824;49.648;8.640;2022-09-25T04:22:00;9.65;;;4.93;;
46086;SDS011;31824;49.648;8.640;2022-09-25T04:25:02;8.60;;;4.50;;
46086;SDS011;31824;49.648;8.640;2022-09-25T04:28:05;9.80;;;4.80;;
46086;SDS011;31824;49.648;8.640;2022-09-25T04:31:07;8.60;;;4.65;;
46086;SDS011;31824;49.648;8.640;2022-09-25T04:34:10;7.43;;;4.03;;
46086;SDS011;31824;49.648;8.640;2022-09-25T04:37:12;8.45;;;4.35;;
46086;SDS011;31824;49.648;8.640;2022-09-25T04:40:14;11.70;;;4.90;;
46086;SDS011;31824;49.648;8.640;2022-09-25T04:43:16;8.07;;;4.18;;
46086;SDS011;31824;49.648;8.640;2022-09-25T04:46:18;8.95;;;4.75;;
46086;SDS011;31824;49.648;8.640;2022-09-25T04:49:24;9.35;;;4.85;;
46086;SDS011;31824;49.648;8.640;2022-09-25T04:52:26;12.85;;;5.35;;
46086;SDS011;31824;49.648;8.640;2022-09-25T04:55:32;9.52;;;4.72;;
46086;SDS011;31824;49.648;8.640;2022-09-25T04:58:33;12.00;;;5.15;;
46086;SDS011;31824;49.648;8.640;2022-09-25T05:01:35;10.65;;;5.13;;
46086;SDS011;31824;49.648;8.640;2022-09-25T05:04:39;10.93;;;5.60;;
46086;SDS011;31824;49.648;8.640;2022-09-25T05:07:49;9.20;;;4.90;;
46086;SDS011;31824;49.648;8.640;2022-09-25T05:10:51;10.00;;;5.13;;
46086;SDS011;31824;49.648;8.640;2022-09-25T05:13:53;8.75;;;4.05;;
46086;SDS011;31824;49.648;8.640;2022-09-25T05:16:55;8.45;;;4.45;;
46086;SDS011;31824;49.648;8.640;2022-09-25T05:19:58;8.65;;;4.40;;
46086;SDS011;31824;49.648;8.640;2022-09-25T05:23:00;9.73;;;4.30;;
46086;SDS011;31824;49.648;8.640;2022-09-25T05:26:04;9.48;;;3.85;;
46086;SDS011;31824;49.648;8.640;2022-09-25T05:29:06;8.15;;;3.95;;
46086;SDS011;31824;49.648;8.640;2022-09-25T05:32:08;7.78;;;3.97;;
46086;SDS011;31824;49.648;8.640;2022-09-25T05:35:11;11.95;;;4.68;;
46086;SDS011;31824;49.648;8.640;2022-09-25T05:38:13;8.10;;;4.28;;
46086;SDS011;31824;49.648;8.640;2022-09-25T05:41:15;9.15;;;4.40;;
46086;SDS011;31824;49.648;8.640;2022-09-25T05:44:17;7.45;;;3.90;;
46086;SDS011;31824;49.648;8.640;2022-09-25T05:47:19;9.65;;;4.22;;
46086;SDS011;31824;49.648;8.640;2022-09-25T05:50:22;7.60;;;4.07;;
46086;SDS011;31824;49.648;8.640;2022-09-25T05:53:23;9.98;;;4.20;;
46086;SDS011;31824;49.648;8.640;2022-09-25T05:56:26;9.30;;;4.70;;
46086;SDS011;31824;49.648;8.640;2022-09-25T05:59:27;9.25;;;4.05;;
46086;SDS011;31824;49.648;8.640;2022-09-25T06:02:29;12.27;;;4.75;;
46086;SDS011;31824;49.648;8.640;2022-09-25T06:05:33;7.80;;;4.30;;
46086;SDS011;31824;49.648;8.640;2022-09-25T06:08:34;9.73;;;4.40;;
46086;SDS011;31824;49.648;8.640;2022-09-25T06:11:36;10.50;;;4.00;;
46086;SDS011;31824;49.648;8.640;2022-09-25T06:14:38;8.80;;;4.95;;
46086;SDS011;31824;49.648;8.640;2022-09-25T06:17:41;7.85;;;4.07;;
46086;SDS011;31824;49.648;8.640;2022-09-25T06:20:44;9.20;;;3.67;;
46086;SDS011;31824;49.648;8.640;2022-09-25T06:23:46;8.10;;;3.90;;
46086;SDS011;31824;49.648;8.640;2022-09-25T06:26:49;5.68;;;3.22;;
46086;SDS011;31824;49.648;8.640;2022-09-25T06:29:50;5.95;;;2.90;;
46086;SDS011;31824;49.648;8.640;2022-09-25T06:32:55;6.97;;;3.38;;
46086;SDS011;31824;49.648;8.640;2022-09-25T06:35:59;5.13;;;2.88;;
46086;SDS011;31824;49.648;8.640;2022-09-25T06:39:01;5.75;;;2.65;;
46086;SDS011;31824;49.648;8.640;2022-09-25T06:42:03;6.40;;;2.85;;
46086;SDS011;31824;49.648;8.640;2022-09-25T06:45:05;5.80;;;2.63;;
46086;SDS011;31824;49.648;8.640;2022-09-25T06:48:08;4.28;;;2.47;;
46086;SDS011;31824;49.648;8.640;2022-09-25T06:51:14;6.28;;;3.03;;
46086;SDS011;31824;49.648;8.640;2022-09-25T06:54:16;5.20;;;2.67;;
46086;SDS011;31824;49.648;8.640;2022-09-25T06:57:18;6.65;;;2.88;;
46086;SDS011;31824;49.648;8.640;2022-09-25T07:00:19;6.85;;;3.20;;
46086;SDS011;31824;49.648;8.640;2022-09-25T07:03:21;5.00;;;2.78;;
46086;SDS011;31824;49.648;8.640;2022-09-25T07:06:44;5.75;;;2.90;;
46086;SDS011;31824;49.648;8.640;2022-09-25T07:09:46;6.55;;;2.70;;
46086;SDS011;31824;49.648;8.640;2022-09-25T07:12:51;6.38;;;3.08;;
46086;SDS011;31824;49.648;8.640;2022-09-25T07:15:52;5.15;;;2.58;;
46086;SDS011;31824;49.648;8.640;2022-09-25T07:18:57;5.60;;;2.85;;
46086;SDS011;31824;49.648;8.640;2022-09-25T07:22:02;5.22;;;2.67;;
46086;SDS011;31824;49.648;8.640;2022-09-25T07:25:05;4.40;;;2.30;;
46086;SDS011;31824;49.648;8.640;2022-09-25T07:28:08;4.03;;;2.30;;
46086;SDS011;31824;49.648;8.640;2022-09-25T07:31:13;6.70;;;2.90;;
46086;SDS011;31824;49.648;8.640;2022-09-25T07:34:16;4.63;;;2.50;;
46086;SDS011;31824;49.648;8.640;2022-09-25T07:37:19;5.70;;;2.78;;
46086;SDS011;31824;49.648;8.640;2022-09-25T07:40:21;7.47;;;3.22;;
46086;SDS011;31824;49.648;8.640;2022-09-25T07:43:23;6.57;;;3.53;;
46086;SDS011;31824;49.648;8.640;2022-09-25T07:46:25;5.10;;;2.70;;
46086;SDS011;31824;49.648;8.640;2022-09-25T07:49:28;5.65;;;3.05;;
46086;SDS011;31824;49.648;8.640;2022-09-25T07:52:31;6.00;;;2.90;;
46086;SDS011;31824;49.648;8.640;2022-09-25T07:55:33;7.97;;;4.00;;
46086;SDS011;31824;49.648;8.640;2022-09-25T07:58:35;6.90;;;3.17;;
46086;SDS011;31824;49.648;8.640;2022-09-25T08:01:36;6.03;;;2.92;;
46086;SDS011;31824;49.648;8.640;2022-09-25T08:04:45;5.53;;;3.22;;
46086;SDS011;31824;49.648;8.640;2022-09-25T08:07:48;6.18;;;3.15;;
46086;SDS011;31824;49.648;8.640;2022-09-25T08:10:50;6.07;;;2.97;;
46086;SDS011;31824;49.648;8.640;2022-09-25T08:13:52;6.63;;;3.42;;
46086;SDS011;31824;49.648;8.640;2022-09-25T08:16:54;6.22;;;3.38;;
46086;SDS011;31824;49.648;8.640;2022-09-25T08:19:56;6.93;;;3.45;;
46086;SDS011;31824;49.648;8.640;2022-09-25T08:22:59;6.10;;;3.25;;
46086;SDS011;31824;49.648;8.640;2022-09-25T08:26:01;4.68;;;3.00;;
46086;SDS011;31824;49.648;8.640;2022-09-25T08:29:03;5.00;;;2.60;;
46086;SDS011;31824;49.648;8.640;2022-09-25T08:32:05;6.10;;;3.20;;
46086;SDS011;31824;49.648;8.640;2022-09-25T08:35:07;6.55;;;3.20;;
46086;SDS011;31824;49.648;8.640;2022-09-25T08:38:11;5.82;;;3.20;;
46086;SDS011;31824;49.648;8.640;2022-09-25T08:41:14;6.88;;;3.17;;
46086;SDS011;31824;49.648;8.640;2022-09-25T08:44:20;6.53;;;3.38;;
46086;SDS011;31824;49.648;8.640;2022-09-25T08:47:26;5.10;;;2.90;;
46086;SDS011;31824;49.648;8.640;2022-09-25T08:50:47;7.95;;;3.25;;
46086;SDS011;31824;49.648;8.640;2022-09-25T08:53:52;6.10;;;2.95;;
46086;SDS011;31824;49.648;8.640;2022-09-25T08:56:55;6.57;;;3.10;;
46086;SDS011;31824;49.648;8.640;2022-09-25T09:00:01;5.63;;;2.90;;
46086;SDS011;31824;49.648;8.640;2022-09-25T09:03:07;5.60;;;2.33;;
46086;SDS011;31824;49.648;8.640;2022-09-25T09:06:13;4.43;;;2.50;;
46086;SDS011;31824;49.648;8.640;2022-09-25T09:09:19;4.72;;;2.38;;
46086;SDS011;31824;49.648;8.640;2022-09-25T09:12:27;3.78;;;2.22;;
46086;SDS011;31824;49.648;8.640;2022-09-25T09:15:37;4.50;;;1.90;;
46086;SDS011;31824;49.648;8.640;2022-09-25T09:18:43;3.95;;;1.90;;
46086;SDS011;31824;49.648;8.640;2022-09-25T09:21:46;4.15;;;1.92;;
46086;SDS011;31824;49.648;8.640;2022-09-25T09:24:57;4.55;;;2.40;;
46086;SDS011;31824;49.648;8.640;2022-09-25T09:28:13;4.38;;;2.40;;
46086;SDS011;31824;49.648;8.640;2022-09-25T09:31:35;3.53;;;2.03;;
46086;SDS011;31824;49.648;8.640;2022-09-25T09:34:53;6.93;;;2.17;;
46086;SDS011;31824;49.648;8.640;2022-09-25T09:38:10;4.20;;;2.30;;
46086;SDS011;31824;49.648;8.640;2022-09-25T09:41:27;4.40;;;2.53;;
46086;SDS011;31824;49.648;8.640;2022-09-25T09:44:38;4.97;;;2.60;;
46086;SDS011;31824;49.648;8.640;2022-09-25T09:47:55;4.72;;;2.45;;
46086;SDS011;31824;49.648;8.640;2022-09-25T09:51:05;5.18;;;2.60;;
46086;SDS011;31824;49.648;8.640;2022-09-25T09:54:11;5.07;;;2.78;;
46086;SDS011;31824;49.648;8.640;2022-09-25T09:57:19;4.07;;;2.10;;
46086;SDS011;31824;49.648;8.640;2022-09-25T10:00:23;4.20;;;2.10;;
46086;SDS011;31824;49.648;8.640;2022-09-25T10:03:26;3.25;;;1.80;;
46086;SDS011;31824;49.648;8.640;2022-09-25T10:06:33;4.25;;;1.95;;
46086;SDS011;31824;49.648;8.640;2022-09-25T10:09:38;3.50;;;2.03;;
46086;SDS011;31824;49.648;8.640;2022-09-25T10:12:42;4.63;;;2.33;;
46086;SDS011;31824;49.648;8.640;2022-09-25T10:15:48;4.13;;;2.15;;
46086;SDS011;31824;49.648;8.640;2022-09-25T10:18:53;4.47;;;2.15;;
46086;SDS011;31824;49.648;8.640;2022-09-25T10:22:02;5.28;;;2.35;;
46086;SDS011;31824;49.648;8.640;2022-09-25T10:25:10;4.60;;;2.40;;
46086;SDS011;31824;49.648;8.640;2022-09-25T10:28:21;4.97;;;2.60;;
46086;SDS011;31824;49.648;8.640;2022-09-25T10:31:28;4.72;;;2.10;;
46086;SDS011;31824;49.648;8.640;2022-09-25T10:34:32;4.32;;;2.17;;
46086;SDS011;31824;49.648;8.640;2022-09-25T10:37:34;4.43;;;2.15;;
46086;SDS011;31824;49.648;8.640;2022-09-25T10:40:36;5.47;;;2.40;;
46086;SDS011;31824;49.648;8.640;2022-09-25T10:43:50;5.57;;;2.40;;
46086;SDS011;31824;49.648;8.640;2022-09-25T10:46:54;4.78;;;2.10;;
46086;SDS011;31824;49.648;8.640;2022-09-25T10:50:17;4.57;;;2.42;;
46086;SDS011;31824;49.648;8.640;2022-09-25T10:53:24;5.18;;;2.17;;
46086;SDS011;31824;49.648;8.640;2022-09-25T10:56:31;4.72;;;2.20;;
46086;SDS011;31824;49.648;8.640;2022-09-25T10:59:37;5.13;;;2.42;;
46086;SDS011;31824;49.648;8.640;2022-09-25T11:02:40;5.57;;;2.72;;
46086;SDS011;31824;49.648;8.640;2022-09-25T11:05:48;5.13;;;2.45;;
46086;SDS011;31824;49.648;8.640;2022-09-25T11:09:01;4.32;;;2.33;;
46086;SDS011;31824;49.648;8.640;2022-09-25T11:12:12;5.65;;;2.72;;
46086;SDS011;31824;49.648;8.640;2022-09-25T11:15:18;5.35;;;2.50;;
46086;SDS011;31824;49.648;8.640;2022-09-25T11:18:32;6.03;;;2.80;;
46086;SDS011;31824;49.648;8.640;2022-09-25T11:21:39;6.10;;;2.83;;
46086;SDS011;31824;49.648;8.640;2022-09-25T11:24:56;5.65;;;2.92;;
46086;SDS011;31824;49.648;8.640;2022-09-25T11:28:08;5.15;;;2.70;;
46086;SDS011;31824;49.648;8.640;2022-09-25T11:31:17;4.70;;;2.28;;
46086;SDS011;31824;49.648;8.640;2022-09-25T11:34:37;5.15;;;2.80;;
46086;SDS011;31824;49.648;8.640;2022-09-25T11:37:51;6.25;;;3.22;;
46086;SDS011;31824;49.648;8.640;2022-09-25T11:41:03;6.35;;;2.70;;
46086;SDS011;31824;49.648;8.640;2022-09-25T11:44:20;5.28;;;2.67;;
46086;SDS011;31824;49.648;8.640;2022-09-25T11:47:37;5.68;;;2.90;;
46086;SDS011;31824;49.648;8.640;2022-09-25T11:50:45;5.25;;;2.70;;
46086;SDS011;31824;49.648;8.640;2022-09-25T11:54:01;5.57;;;2.85;;
46086;SDS011;31824;49.648;8.640;2022-09-25T11:57:35;5.03;;;2.53;;
46086;SDS011;31824;49.648;8.640;2022-09-25T12:00:44;4.70;;;2.15;;
46086;SDS011;31824;49.648;8.640;2022-09-25T12:10:44;5.53;;;3.05;;
46086;SDS011;31824;49.648;8.640;2022-09-25T12:13:56;6.82;;;3.53;;
46086;SDS011;31824;49.648;8.640;2022-09-25T12:17:05;6.53;;;3.40;;
46086;SDS011;31824;49.648;8.640;2022-09-25T12:20:17;6.00;;;3.10;;
46086;SDS011;31824;49.648;8.640;2022-09-25T12:23:27;6.10;;;3.35;;
46086;SDS011;31824;49.648;8.640;2022-09-25T12:26:33;5.93;;;3.28;;
46086;SDS011;31824;49.648;8.640;2022-09-25T12:29:50;6.43;;;2.55;;
46086;SDS011;31824;49.648;8.640;2022-09-25T12:33:14;5.55;;;2.55;;
46086;SDS011;31824;49.648;8.640;2022-09-25T12:36:26;5.28;;;2.70;;
46086;SDS011;31824;49.648;8.640;2022-09-25T12:39:36;8.93;;;4.47;;
46086;SDS011;31824;49.648;8.640;2022-09-25T12:42:45;8.23;;;4.40;;
46086;SDS011;31824;49.648;8.640;2022-09-25T12:45:51;9.07;;;4.50;;
46086;SDS011;31824;49.648;8.640;2022-09-25T12:48:59;10.07;;;4.65;;
46086;SDS011;31824;49.648;8.640;2022-09-25T12:52:08;8.20;;;4.15;;
46086;SDS011;31824;49.648;8.640;2022-09-25T12:55:15;9.75;;;4.85;;
46086;SDS011;31824;49.648;8.640;2022-09-25T12:58:20;10.07;;;5.32;;
46086;SDS011;31824;49.648;8.640;2022-09-25T13:01:32;11.70;;;5.38;;
46086;SDS011;31824;49.648;8.640;2022-09-25T13:04:45;10.10;;;5.03;;
46086;SDS011;31824;49.648;8.640;2022-09-25T13:08:00;9.85;;;4.88;;
46086;SDS011;31824;49.648;8.640;2022-09-25T13:11:09;9.52;;;4.70;;
46086;SDS011;31824;49.648;8.640;2022-09-25T13:14:18;8.60;;;5.07;;
46086;SDS011;31824;49.648;8.640;2022-09-25T13:17:30;9.10;;;4.97;;
46086;SDS011;31824;49.648;8.640;2022-09-25T13:24:23;10.10;;;5.05;;
46086;SDS011;31824;49.648;8.640;2022-09-25T13:27:25;8.02;;;3.67;;
46086;SDS011;31824;49.648;8.640;2022-09-25T13:30:39;6.68;;;3.67;;
46086;SDS011;31824;49.648;8.640;2022-09-25T13:34:01;7.20;;;3.20;;
46086;SDS011;31824;49.648;8.640;2022-09-25T13:37:05;7.43;;;2.40;;
46086;SDS011;31824;49.648;8.640;2022-09-25T13:40:15;5.45;;;2.58;;
46086;SDS011;31824;49.648;8.640;2022-09-25T13:43:38;6.20;;;3.05;;
46086;SDS011;31824;49.648;8.640;2022-09-25T13:46:40;6.18;;;2.42;;
46086;SDS011;31824;49.648;8.640;2022-09-25T13:49:44;4.90;;;2.05;;
46086;SDS011;31824;49.648;8.640;2022-09-25T13:52:51;4.03;;;1.80;;
46086;SDS011;31824;49.648;8.640;2022-09-25T13:56:26;4.25;;;2.03;;
46086;SDS011;31824;49.648;8.640;2022-09-25T13:59:44;3.67;;;1.70;;
46086;SDS011;31824;49.648;8.640;2022-09-25T14:03:04;3.15;;;1.70;;
46086;SDS011;31824;49.648;8.640;2022-09-25T14:06:28;3.67;;;1.73;;
46086;SDS011;31824;49.648;8.640;2022-09-25T14:09:41;3.58;;;1.48;;
46086;SDS011;31824;49.648;8.640;2022-09-25T14:12:47;4.05;;;1.85;;
46086;SDS011;31824;49.648;8.640;2022-09-25T14:15:50;6.70;;;1.60;;
46086;SDS011;31824;49.648;8.640;2022-09-25T14:18:54;2.95;;;1.50;;
46086;SDS011;31824;49.648;8.640;2022-09-25T14:21:58;3.88;;;1.30;;
46086;SDS011;31824;49.648;8.640;2022-09-25T14:25:02;4.53;;;1.40;;
46086;SDS011;31824;49.648;8.640;2022-09-25T14:28:14;3.20;;;1.33;;
46086;SDS011;31824;49.648;8.640;2022-09-25T14:31:30;2.40;;;1.10;;
46086;SDS011;31824;49.648;8.640;2022-09-25T14:34:50;6.68;;;1.52;;
46086;SDS011;31824;49.648;8.640;2022-09-25T14:41:50;3.72;;;1.58;;
46086;SDS011;31824;49.648;8.640;2022-09-25T14:45:18;5.43;;;1.25;;
46086;SDS011;31824;49.648;8.640;2022-09-25T14:48:34;2.70;;;1.10;;
46086;SDS011;31824;49.648;8.640;2022-09-25T14:51:39;2.90;;;1.27;;
46086;SDS011;31824;49.648;8.640;2022-09-25T14:54:45;6.85;;;1.30;;
46086;SDS011;31824;49.648;8.640;2022-09-25T14:57:48;2.53;;;0.93;;
46086;SDS011;31824;49.648;8.640;2022-09-25T15:00:53;3.08;;;1.50;;
46086;SDS011;31824;49.648;8.640;2022-09-25T15:03:58;3.08;;;1.20;;
46086;SDS011;31824;49.648;8.640;2022-09-25T15:07:07;3.85;;;1.42;;
46086;SDS011;31824;49.648;8.640;2022-09-25T15:10:22;2.85;;;1.10;;
46086;SDS011;31824;49.648;8.640;2022-09-25T15:13:26;3.42;;;1.15;;
46086;SDS011;31824;49.648;8.640;2022-09-25T15:16:36;2.63;;;1.10;;
46086;SDS011;31824;49.648;8.640;2022-09-25T15:19:57;4.65;;;1.38;;
46086;SDS011;31824;49.648;8.640;2022-09-25T15:23:02;4.28;;;1.00;;
46086;SDS011;31824;49.648;8.640;2022-09-25T15:26:10;2.20;;;0.82;;
46086;SDS011;31824;49.648;8.640;2022-09-25T15:29:17;4.32;;;1.02;;
46086;SDS011;31824;49.648;8.640;2022-09-25T15:32:24;2.33;;;0.95;;
46086;SDS011;31824;49.648;8.640;2022-09-25T15:35:29;2.13;;;1.00;;
46086;SDS011;31824;49.648;8.640;2022-09-25T15:38:32;3.40;;;1.17;;
46086;SDS011;31824;49.648;8.640;2022-09-25T15:41:35;1.80;;;0.85;;
46086;SDS011;31824;49.648;8.640;2022-09-25T15:44:37;2.20;;;1.10;;
46086;SDS011;31824;49.648;8.640;2022-09-25T15:47:52;4.22;;;1.05;;
46086;SDS011;31824;49.648;8.640;2022-09-25T15:50:55;3.03;;;1.13;;
46086;SDS011;31824;49.648;8.640;2022-09-25T15:54:00;2.90;;;1.20;;
46086;SDS011;31824;49.648;8.640;2022-09-25T15:57:05;4.80;;;1.42;;
46086;SDS011;31824;49.648;8.640;2022-09-25T16:00:15;1.85;;;0.82;;
46086;SDS011;31824;49.648;8.640;2022-09-25T16:03:58;4.18;;;1.35;;
46086;SDS011;31824;49.648;8.640;2022-09-25T16:07:22;3.55;;;0.88;;
46086;SDS011;31824;49.648;8.640;2022-09-25T16:10:32;5.03;;;1.23;;
46086;SDS011;31824;49.648;8.640;2022-09-25T16:13:35;2.85;;;1.10;;
46086;SDS011;31824;49.648;8.640;2022-09-25T16:16:44;5.43;;;1.33;;
46086;SDS011;31824;49.648;8.640;2022-09-25T16:19:57;2.13;;;0.93;;
46086;SDS011;31824;49.648;8.640;2022-09-25T16:23:02;3.20;;;1.05;;
46086;SDS011;31824;49.648;8.640;2022-09-25T16:26:12;3.72;;;1.15;;
46086;SDS011;31824;49.648;8.640;2022-09-25T16:29:18;1.42;;;0.85;;
46086;SDS011;31824;49.648;8.640;2022-09-25T16:32:22;3.97;;;1.35;;
46086;SDS011;31824;49.648;8.640;2022-09-25T16:35:31;1.63;;;0.82;;
46086;SDS011;31824;49.648;8.640;2022-09-25T16:42:28;2.35;;;0.90;;
46086;SDS011;31824;49.648;8.640;2022-09-25T16:45:32;2.10;;;1.00;;
46086;SDS011;31824;49.648;8.640;2022-09-25T16:48:35;1.73;;;0.68;;
46086;SDS011;31824;49.648;8.640;2022-09-25T16:51:41;1.63;;;0.73;;
46086;SDS011;31824;49.648;8.640;2022-09-25T16:54:47;1.95;;;0.90;;
46086;SDS011;31824;49.648;8.640;2022-09-25T16:57:53;5.47;;;1.23;;
46086;SDS011;31824;49.648;8.640;2022-09-25T17:00:56;4.32;;;1.25;;
46086;SDS011;31824;49.648;8.640;2022-09-25T17:03:59;3.28;;;1.20;;
46086;SDS011;31824;49.648;8.640;2022-09-25T17:07:02;4.00;;;1.10;;
46086;SDS011;31824;49.648;8.640;2022-09-25T17:10:04;2.15;;;0.93;;
46086;SDS011;31824;49.648;8.640;2022-09-25T17:13:09;2.58;;;0.90;;
46086;SDS011;31824;49.648;8.640;2022-09-25T17:16:15;2.08;;;1.00;;
46086;SDS011;31824;49.648;8.640;2022-09-25T17:19:17;2.20;;;0.98;;
46086;SDS011;31824;49.648;8.640;2022-09-25T17:22:20;1.92;;;0.90;;
46086;SDS011;31824;49.648;8.640;2022-09-25T17:25:35;2.28;;;0.90;;
46086;SDS011;31824;49.648;8.640;2022-09-25T17:31:42;2.72;;;1.10;;
46086;SDS011;31824;49.648;8.640;2022-09-25T17:34:44;2.30;;;1.20;;
46086;SDS011;31824;49.648;8.640;2022-09-25T17:37:48;2.53;;;1.13;;
46086;SDS011;31824;49.648;8.640;2022-09-25T17:40:50;4.03;;;1.20;;
46086;SDS011;31824;49.648;8.640;2022-09-25T17:43:52;2.33;;;0.82;;
46086;SDS011;31824;49.648;8.640;2022-09-25T17:46:54;4.05;;;1.45;;
46086;SDS011;31824;49.648;8.640;2022-09-25T17:49:56;3.00;;;1.20;;
46086;SDS011;31824;49.648;8.640;2022-09-25T17:53:00;1.63;;;0.90;;
46086;SDS011;31824;49.648;8.640;2022-09-25T17:56:03;4.95;;;1.52;;
46086;SDS011;31824;49.648;8.640;2022-09-25T17:59:07;1.52;;;0.80;;
46086;SDS011;31824;49.648;8.640;2022-09-25T18:02:12;5.70;;;1.63;;
46086;SDS011;31824;49.648;8.640;2022-09-25T18:05:16;3.47;;;1.27;;
46086;SDS011;31824;49.648;8.640;2022-09-25T18:08:20;1.90;;;1.00;;
46086;SDS011;31824;49.648;8.640;2022-09-25T18:11:22;13.38;;;7.00;;
46086;SDS011;31824;49.648;8.640;2022-09-25T18:14:25;11.32;;;6.55;;
46086;SDS011;31824;49.648;8.640;2022-09-25T18:17:27;11.65;;;5.95;;
46086;SDS011;31824;49.648;8.640;2022-09-25T18:20:29;5.95;;;2.70;;
46086;SDS011;31824;49.648;8.640;2022-09-25T18:23:50;6.22;;;2.55;;
46086;SDS011;31824;49.648;8.640;2022-09-25T18:26:52;4.50;;;2.30;;
46086;SDS011;31824;49.648;8.640;2022-09-25T18:29:56;3.22;;;1.38;;
46086;SDS011;31824;49.648;8.640;2022-09-25T18:32:58;1.95;;;0.88;;
46086;SDS011;31824;49.648;8.640;2022-09-25T18:36:00;2.00;;;0.90;;
46086;SDS011;31824;49.648;8.640;2022-09-25T18:39:05;2.38;;;1.10;;
46086;SDS011;31824;49.648;8.640;2022-09-25T18:42:07;2.75;;;1.23;;
46086;SDS011;31824;49.648;8.640;2022-09-25T18:45:09;2.15;;;0.95;;
46086;SDS011;31824;49.648;8.640;2022-09-25T18:48:12;1.92;;;0.80;;
46086;SDS011;31824;49.648;8.640;2022-09-25T18:51:14;4.05;;;1.20;;
46086;SDS011;31824;49.648;8.640;2022-09-25T18:54:17;2.13;;;1.15;;
46086;SDS011;31824;49.648;8.640;2022-09-25T18:57:19;1.90;;;0.80;;
46086;SDS011;31824;49.648;8.640;2022-09-25T19:00:21;18.52;;;11.02;;
46086;SDS011;31824;49.648;8.640;2022-09-25T19:03:23;6.68;;;3.08;;
46086;SDS011;31824;49.648;8.640;2022-09-25T19:06:24;12.02;;;6.40;;
46086;SDS011;31824;49.648;8.640;2022-09-25T19:09:28;8.50;;;4.00;;